IBB570 GCLP-GCRR
Flight info
| Callsign | IBB570 |
|---|---|
| Flight time | N/A |
| Altitude | 9000 |
| Route | RASEP |
| Aircraft | AT75/M-SDE2E3FGHIRWXY/LB1 |
Departure
| Time | 2026-04-29 17:27 |
|---|---|
| Airport | Gran Canaria Airport (GCLP) |
Arrival
| Time | N/A |
|---|---|
| Airport | César Manrique-Lanzarote Airport (GCRR) |
| Time | Latitude | Longitude | Altitude | Speed | Heading |
|---|---|---|---|---|---|
| 2026-04-29 17:26 | 27.91901 | -15.39228 | 85 ft | 0 kts | 22° |
| 2026-04-29 17:26 | 27.91951 | -15.39205 | 85 ft | 37 kts | 22° |
| 2026-04-29 17:27 | 27.92457 | -15.38980 | 85 ft | 111 kts | 21° |
| 2026-04-29 17:27 | 27.93283 | -15.38627 | 335 ft | 135 kts | 20° |
| 2026-04-29 17:27 | 27.94224 | -15.38280 | 824 ft | 146 kts | 16° |
| 2026-04-29 17:27 | 27.95251 | -15.37876 | 1189 ft | 168 kts | 19° |
| 2026-04-29 17:28 | 27.96368 | -15.37385 | 1716 ft | 175 kts | 21° |
| 2026-04-29 17:28 | 27.97513 | -15.36878 | 2354 ft | 176 kts | 21° |
| 2026-04-29 17:28 | 27.98680 | -15.36359 | 2941 ft | 183 kts | 22° |
| 2026-04-29 17:28 | 27.99832 | -15.35812 | 3625 ft | 178 kts | 23° |
| 2026-04-29 17:29 | 28.00956 | -15.35286 | 4108 ft | 175 kts | 22° |
| 2026-04-29 17:29 | 28.02101 | -15.34753 | 4457 ft | 182 kts | 22° |
| 2026-04-29 17:29 | 28.03291 | -15.34217 | 4833 ft | 186 kts | 20° |
| 2026-04-29 17:29 | 28.04097 | -15.33861 | 5101 ft | 187 kts | 20° |
| 2026-04-29 17:30 | 28.05702 | -15.33121 | 5645 ft | 189 kts | 21° |
| 2026-04-29 17:30 | 28.06937 | -15.32543 | 6039 ft | 191 kts | 21° |
| 2026-04-29 17:30 | 28.07752 | -15.32158 | 6297 ft | 193 kts | 21° |
| 2026-04-29 17:30 | 28.09003 | -15.31570 | 6691 ft | 194 kts | 21° |
| 2026-04-29 17:31 | 28.10250 | -15.30999 | 7074 ft | 196 kts | 20° |
| 2026-04-29 17:31 | 28.11540 | -15.30431 | 7468 ft | 197 kts | 19° |
| 2026-04-29 17:31 | 28.12820 | -15.29904 | 7843 ft | 199 kts | 17° |
| 2026-04-29 17:31 | 28.14139 | -15.29345 | 8203 ft | 203 kts | 24° |
| 2026-04-29 17:32 | 28.15171 | -15.28289 | 8614 ft | 202 kts | 47° |
| 2026-04-29 17:32 | 28.16065 | -15.27013 | 8859 ft | 212 kts | 53° |
| 2026-04-29 17:32 | 28.16958 | -15.25624 | 8965 ft | 225 kts | 54° |
| 2026-04-29 17:32 | 28.17903 | -15.24129 | 8994 ft | 239 kts | 54° |
| 2026-04-29 17:33 | 28.18891 | -15.22560 | 8995 ft | 250 kts | 54° |
| 2026-04-29 17:33 | 28.19920 | -15.20927 | 8995 ft | 258 kts | 54° |
| 2026-04-29 17:33 | 28.20985 | -15.19255 | 8994 ft | 263 kts | 54° |
| 2026-04-29 17:33 | 28.22071 | -15.17577 | 8991 ft | 267 kts | 53° |
| 2026-04-29 17:34 | 28.23036 | -15.16094 | 8992 ft | 270 kts | 53° |
| 2026-04-29 17:34 | 28.23833 | -15.14893 | 8992 ft | 272 kts | 52° |
| 2026-04-29 17:34 | 28.24984 | -15.13178 | 8991 ft | 274 kts | 53° |
| 2026-04-29 17:35 | 28.26867 | -15.10313 | 8992 ft | 276 kts | 53° |
| 2026-04-29 17:35 | 28.28404 | -15.07947 | 8992 ft | 278 kts | 53° |
| 2026-04-29 17:35 | 28.29561 | -15.06161 | 8989 ft | 278 kts | 53° |
| 2026-04-29 17:36 | 28.30700 | -15.04401 | 8990 ft | 279 kts | 53° |
| 2026-04-29 17:36 | 28.31854 | -15.02619 | 8992 ft | 279 kts | 53° |
| 2026-04-29 17:36 | 28.33015 | -15.00857 | 8991 ft | 279 kts | 53° |
| 2026-04-29 17:36 | 28.34173 | -14.99086 | 8986 ft | 279 kts | 53° |
| 2026-04-29 17:37 | 28.34943 | -14.97900 | 8984 ft | 279 kts | 53° |